createdAt,value
2022-10-20T00:02:19.269Z,2.2
2022-10-20T00:11:56.047Z,2.14
2022-10-20T00:21:31.133Z,1.98
2022-10-20T00:31:07.717Z,1.86
2022-10-20T00:40:44.527Z,1.81
2022-10-20T00:50:21.168Z,1.8
2022-10-20T00:59:57.745Z,1.67
2022-10-20T01:09:34.079Z,1.58
2022-10-20T01:19:10.711Z,1.39
2022-10-20T01:28:47.480Z,1.2
2022-10-20T01:38:23.728Z,1.19
2022-10-20T01:48:00.659Z,1.22
2022-10-20T01:57:37.435Z,1.11
2022-10-20T02:07:14.352Z,1.02
2022-10-20T02:26:28.334Z,0.92
2022-10-20T02:36:04.792Z,0.69
2022-10-20T02:45:41.782Z,0.66
2022-10-20T03:04:55.360Z,0.6
2022-10-20T03:14:32.307Z,0.67
2022-10-20T03:24:09.865Z,0.7
2022-10-20T03:33:48.103Z,0.45
2022-10-20T03:43:23.321Z,0.47
2022-10-20T03:52:59.214Z,0.42
2022-10-20T04:02:36.498Z,0.59
2022-10-20T04:12:12.435Z,0.61
2022-10-20T04:21:50.942Z,0.71
2022-10-20T04:31:26.325Z,0.73
2022-10-20T04:50:40.027Z,0.87
2022-10-20T05:00:16.961Z,0.98
2022-10-20T05:09:53.614Z,1.13
2022-10-20T05:19:30.121Z,0.78
2022-10-20T05:29:06.424Z,1.01
2022-10-20T05:38:43.594Z,1.48
2022-10-20T05:48:20.535Z,1.46
2022-10-20T05:57:57.469Z,1.62
2022-10-20T06:07:34.203Z,1.88
2022-10-20T06:17:11.402Z,1.96
2022-10-20T06:26:48.342Z,2.2
2022-10-20T06:36:26.146Z,2.47
2022-10-20T06:46:03.090Z,2.73
2022-10-20T06:55:40.186Z,3.05
2022-10-20T07:05:17.488Z,3.27
2022-10-20T07:14:54.869Z,3.57
2022-10-20T07:24:31.757Z,3.75
2022-10-20T07:34:26.617Z,4.13
2022-10-20T07:43:46.699Z,4.45
2022-10-20T07:53:23.827Z,4.81
2022-10-20T08:03:01.527Z,5.19
2022-10-20T08:12:39.311Z,5.6
2022-10-20T08:22:16.043Z,5.97
2022-10-20T08:31:54.068Z,6.75
2022-10-20T08:41:38.861Z,7.37
2022-10-20T08:51:10.110Z,7.74
2022-10-20T09:00:47.977Z,7.95
2022-10-20T09:10:25.632Z,8.51
2022-10-20T09:20:03.370Z,8.82
2022-10-20T09:29:40.360Z,9.26
2022-10-20T09:39:18.514Z,10.07
2022-10-20T09:48:56.065Z,10.66
2022-10-20T09:58:33.300Z,10.85
2022-10-20T10:08:10.881Z,11.37
2022-10-20T10:17:48.470Z,11.64
2022-10-20T10:27:26.613Z,12.29
2022-10-20T10:37:13.211Z,13.93
2022-10-20T10:47:10.493Z,14.64
2022-10-20T10:57:11.818Z,16.27
2022-10-20T11:06:57.846Z,17.04
2022-10-20T11:16:34.649Z,17.3
2022-10-20T11:26:11.731Z,17.66
2022-10-20T11:35:49.976Z,17.79
2022-10-20T11:45:27.725Z,18.21
2022-10-20T11:54:56.919Z,18.97
2022-10-20T12:04:31.021Z,18.01
2022-10-20T12:14:23.234Z,18.45
2022-10-20T12:23:53.427Z,19.77
2022-10-20T12:43:19.472Z,19.31
2022-10-20T12:52:59.340Z,19.39
2022-10-20T13:02:32.573Z,19.42
2022-10-20T13:12:10.670Z,19.64
2022-10-20T13:21:36.959Z,18.71
2022-10-20T13:31:01.979Z,17.26
2022-10-20T13:40:38.743Z,17.53
2022-10-20T13:50:14.095Z,17.37
2022-10-20T13:59:45.087Z,16.29
2022-10-20T14:09:20.504Z,16.12
2022-10-20T14:19:02.691Z,16.52
2022-10-20T14:38:21.715Z,16.73
2022-10-20T14:47:53.627Z,16.07
2022-10-20T14:57:27.794Z,15.27
2022-10-20T15:07:01.904Z,14.67
2022-10-20T15:16:36.832Z,14.4
2022-10-20T15:26:12.519Z,14.03
2022-10-20T15:35:47.779Z,13.69
2022-10-20T15:45:23.850Z,13.39
2022-10-20T15:55:02.385Z,13.11
2022-10-20T16:04:36.928Z,12.65
2022-10-20T16:14:13.533Z,12.38
2022-10-20T16:23:49.694Z,12.2
2022-10-20T16:33:28.904Z,12.25
2022-10-20T16:43:04.349Z,12.21
2022-10-20T16:52:43.595Z,12.07
2022-10-20T17:02:21.343Z,11.94
2022-10-20T17:11:58.041Z,12.04
2022-10-20T17:21:33.746Z,12.14
2022-10-20T17:31:13.499Z,12.41
2022-10-20T17:40:48.527Z,12.32
2022-10-20T17:50:25.703Z,12.35
2022-10-20T18:00:07.805Z,12.4
2022-10-20T18:09:39.974Z,12.3
2022-10-20T18:19:19.419Z,11.98
2022-10-20T18:28:54.489Z,11.6
2022-10-20T18:38:31.399Z,11.6
2022-10-20T18:48:10.716Z,11.52
2022-10-20T18:57:46.590Z,11.62
2022-10-20T19:07:23.436Z,11.54
2022-10-20T19:16:59.701Z,11.49
2022-10-20T19:26:36.870Z,11.33
2022-10-20T19:36:15.398Z,11.33
2022-10-20T19:45:50.549Z,11.29
2022-10-20T19:55:28.485Z,11.34
2022-10-20T20:05:04.312Z,11.35
2022-10-20T20:14:43.338Z,11.38
2022-10-20T20:24:19.098Z,11.4
2022-10-20T20:33:58.578Z,11.47
2022-10-20T20:43:34.037Z,11.45
2022-10-20T20:53:09.528Z,11.39
2022-10-20T21:02:45.815Z,11.05
2022-10-20T21:12:22.741Z,10.92
2022-10-20T21:21:59.449Z,10.94
2022-10-20T21:31:36.472Z,10.92
2022-10-20T21:41:15.457Z,10.81
2022-10-20T21:50:50.876Z,10.86
2022-10-20T22:00:31.343Z,11.05
2022-10-20T22:10:06.664Z,11.1
2022-10-20T22:19:43.646Z,11.06
2022-10-20T22:29:22.831Z,11.16
2022-10-20T22:38:56.627Z,11.2
2022-10-20T22:48:34.610Z,11.19
2022-10-20T22:58:10.013Z,11.25
2022-10-20T23:07:47.966Z,11.01
2022-10-20T23:17:24.532Z,11.16
2022-10-20T23:27:01.869Z,11.27
2022-10-20T23:36:39.240Z,11.5
2022-10-20T23:46:16.650Z,11.51
2022-10-20T23:55:54.562Z,11.58
